createdAt,value
2022-12-06T00:01:02.702Z,2832.9815
2022-12-06T00:16:04.630Z,2579.40379
2022-12-06T00:31:06.479Z,2106.91874
2022-12-06T00:46:08.325Z,1835.61693
2022-12-06T01:01:10.352Z,1721.25933
2022-12-06T01:16:12.321Z,1722.36553
2022-12-06T01:31:14.282Z,2015.03809
2022-12-06T01:46:16.252Z,2214.87654
2022-12-06T02:01:18.225Z,2115.23334
2022-12-06T02:16:20.140Z,1951.93058
2022-12-06T02:31:22.063Z,2271.18695
2022-12-06T02:46:24.029Z,1485.5881
2022-12-06T03:01:25.993Z,1395.83385
2022-12-06T03:16:27.905Z,1322.80406
2022-12-06T03:31:29.829Z,1338.66185
2022-12-06T03:46:31.790Z,1607.67896
2022-12-06T04:01:33.725Z,1766.64519
2022-12-06T04:16:35.621Z,2147.4364
2022-12-06T04:31:37.644Z,2350.8777
2022-12-06T04:46:39.536Z,2447.4891
2022-12-06T05:01:41.380Z,2576.92359
2022-12-06T05:16:43.243Z,2617.18802
2022-12-06T05:31:45.222Z,2645.60763
2022-12-06T05:46:47.061Z,2693.46786
2022-12-06T06:01:48.911Z,2712.55113
2022-12-06T06:16:50.768Z,2748.71847
2022-12-06T06:31:52.635Z,2709.80841
2022-12-06T06:46:54.509Z,2720.81271
2022-12-06T07:01:56.526Z,2693.46786
2022-12-06T07:16:58.531Z,2682.6832
2022-12-06T07:32:00.418Z,2661.37093
2022-12-06T07:47:02.226Z,2617.18802
2022-12-06T08:02:04.134Z,2624.87809
2022-12-06T08:17:06.028Z,2596.89974
2022-12-06T08:32:07.826Z,2591.87673
2022-12-06T08:47:09.681Z,2609.54287
2022-12-06T09:02:11.604Z,2607.00441
2022-12-06T09:17:13.483Z,2637.79579
2022-12-06T09:32:15.342Z,2650.84127
2022-12-06T09:47:17.180Z,2579.40379
2022-12-06T10:02:19.151Z,2567.05033
2022-12-06T10:17:21.067Z,2511.7156
2022-12-06T10:32:22.873Z,2533.0818
2022-12-06T10:47:24.684Z,2525.91946
2022-12-06T11:02:26.611Z,2507.01642
2022-12-06T11:17:28.505Z,2559.69488
2022-12-06T11:32:30.346Z,2567.05033
2022-12-06T11:47:32.153Z,2574.44816
2022-12-06T12:02:34.036Z,2599.41856
2022-12-06T12:17:35.936Z,2342.65785
2022-12-06T12:32:37.811Z,2175.32518
2022-12-06T12:47:39.644Z,2097.02711
2022-12-06T13:02:41.529Z,1925.28785
2022-12-06T13:17:43.395Z,1826.85803
2022-12-06T13:32:45.235Z,1733.50632
2022-12-06T13:47:47.097Z,1763.15839
2022-12-06T14:02:49.067Z,1840.65984
2022-12-06T14:18:03.177Z,1907.47381
2022-12-06T14:33:06.377Z,1932.22833
2022-12-06T14:48:08.230Z,1954.77803
2022-12-06T15:03:10.109Z,1982.24902
2022-12-06T15:18:11.963Z,2092.11604
2022-12-06T15:33:13.830Z,2149.15848
2022-12-06T15:48:15.658Z,2267.34399
2022-12-06T16:03:17.538Z,2328.41059
2022-12-06T16:18:19.433Z,2394.99604
2022-12-06T16:33:21.291Z,2518.79751
2022-12-06T16:48:23.139Z,2552.38147
2022-12-06T17:03:24.994Z,2642.99855
2022-12-06T17:18:26.851Z,2723.57776
2022-12-06T17:33:28.699Z,2777.2026
2022-12-06T17:48:35.293Z,2845.01114
2022-12-06T18:03:38.848Z,2913.04401
2022-12-06T18:18:40.703Z,2981.09063
2022-12-06T18:33:42.536Z,3014.62366
2022-12-06T18:48:44.364Z,3071.63372
2022-12-06T19:03:46.221Z,3100.05832
2022-12-06T19:18:48.064Z,3160.37784
2022-12-06T19:33:49.913Z,3171.59812
2022-12-06T19:48:51.725Z,3226.97219
2022-12-06T20:03:53.574Z,3200.00049
2022-12-06T20:18:55.401Z,3236.71546
2022-12-06T20:33:57.206Z,3254.40243
2022-12-06T20:48:59.015Z,3292.38378
2022-12-06T21:04:00.849Z,3302.52667
2022-12-06T21:19:02.713Z,3320.94225
2022-12-06T21:34:04.555Z,3329.19303
2022-12-06T21:49:06.462Z,3373.19117
2022-12-06T22:04:08.301Z,3375.31535
2022-12-06T22:19:10.101Z,3396.70518
2022-12-06T22:34:11.911Z,3371.06967
2022-12-06T22:49:17.852Z,3429.30311
2022-12-06T23:04:20.146Z,3416.18914
2022-12-06T23:19:21.993Z,3427.11046
2022-12-06T23:34:23.850Z,3420.54931
2022-12-06T23:49:25.675Z,3480.51997
